sensor_id;sensor_type;location;lat;lon;timestamp;P1;durP1;ratioP1;P2;durP2;ratioP2
20729;SDS011;10526;50.850;12.928;2023-02-26T00:02:10;7.78;;;2.38;;
20729;SDS011;10526;50.850;12.928;2023-02-26T00:06:34;9.95;;;2.78;;
20729;SDS011;10526;50.850;12.928;2023-02-26T00:10:59;7.95;;;2.88;;
20729;SDS011;10526;50.850;12.928;2023-02-26T00:15:22;9.35;;;2.75;;
20729;SDS011;10526;50.850;12.928;2023-02-26T00:19:45;6.68;;;2.50;;
20729;SDS011;10526;50.850;12.928;2023-02-26T00:24:07;6.18;;;2.53;;
20729;SDS011;10526;50.850;12.928;2023-02-26T00:28:29;6.68;;;2.70;;
20729;SDS011;10526;50.850;12.928;2023-02-26T00:32:52;9.73;;;2.83;;
20729;SDS011;10526;50.850;12.928;2023-02-26T00:42:07;4.38;;;2.33;;
20729;SDS011;10526;50.850;12.928;2023-02-26T00:55:59;8.68;;;2.60;;
20729;SDS011;10526;50.850;12.928;2023-02-26T01:00:21;6.70;;;2.53;;
20729;SDS011;10526;50.850;12.928;2023-02-26T01:04:43;4.90;;;2.45;;
20729;SDS011;10526;50.850;12.928;2023-02-26T01:13:56;5.47;;;2.50;;
20729;SDS011;10526;50.850;12.928;2023-02-26T01:18:21;7.72;;;3.25;;
20729;SDS011;10526;50.850;12.928;2023-02-26T01:27:19;6.68;;;3.33;;
20729;SDS011;10526;50.850;12.928;2023-02-26T01:31:44;10.60;;;3.20;;
20729;SDS011;10526;50.850;12.928;2023-02-26T01:36:27;10.85;;;3.38;;
20729;SDS011;10526;50.850;12.928;2023-02-26T01:45:34;11.40;;;3.40;;
20729;SDS011;10526;50.850;12.928;2023-02-26T01:50:36;9.05;;;3.10;;
20729;SDS011;10526;50.850;12.928;2023-02-26T01:54:59;9.05;;;3.40;;
20729;SDS011;10526;50.850;12.928;2023-02-26T01:59:22;6.25;;;3.08;;
20729;SDS011;10526;50.850;12.928;2023-02-26T02:03:44;9.60;;;3.97;;
20729;SDS011;10526;50.850;12.928;2023-02-26T02:08:07;9.20;;;3.33;;
20729;SDS011;10526;50.850;12.928;2023-02-26T02:16:57;6.80;;;3.13;;
20729;SDS011;10526;50.850;12.928;2023-02-26T02:26:34;6.40;;;2.95;;
20729;SDS011;10526;50.850;12.928;2023-02-26T02:31:21;7.20;;;3.13;;
20729;SDS011;10526;50.850;12.928;2023-02-26T02:36:06;7.40;;;2.90;;
20729;SDS011;10526;50.850;12.928;2023-02-26T02:40:39;8.90;;;3.00;;
20729;SDS011;10526;50.850;12.928;2023-02-26T02:50:18;9.68;;;3.58;;
20729;SDS011;10526;50.850;12.928;2023-02-26T02:55:18;10.30;;;4.35;;
20729;SDS011;10526;50.850;12.928;2023-02-26T02:59:45;11.18;;;4.00;;
20729;SDS011;10526;50.850;12.928;2023-02-26T03:04:14;9.15;;;4.32;;
20729;SDS011;10526;50.850;12.928;2023-02-26T03:08:38;10.38;;;4.30;;
20729;SDS011;10526;50.850;12.928;2023-02-26T03:13:02;9.65;;;4.25;;
20729;SDS011;10526;50.850;12.928;2023-02-26T03:37:40;7.72;;;3.85;;
20729;SDS011;10526;50.850;12.928;2023-02-26T03:42:23;7.47;;;3.75;;
20729;SDS011;10526;50.850;12.928;2023-02-26T03:46:59;6.50;;;3.08;;
20729;SDS011;10526;50.850;12.928;2023-02-26T03:51:27;6.75;;;3.15;;
20729;SDS011;10526;50.850;12.928;2023-02-26T03:56:01;8.82;;;3.70;;
20729;SDS011;10526;50.850;12.928;2023-02-26T04:00:48;7.80;;;3.95;;
20729;SDS011;10526;50.850;12.928;2023-02-26T04:05:18;8.70;;;3.95;;
20729;SDS011;10526;50.850;12.928;2023-02-26T04:09:47;7.60;;;3.92;;
20729;SDS011;10526;50.850;12.928;2023-02-26T04:14:13;8.90;;;3.85;;
20729;SDS011;10526;50.850;12.928;2023-02-26T04:18:36;10.48;;;4.50;;
20729;SDS011;10526;50.850;12.928;2023-02-26T04:23:00;11.48;;;3.92;;
20729;SDS011;10526;50.850;12.928;2023-02-26T04:27:22;12.35;;;5.45;;
20729;SDS011;10526;50.850;12.928;2023-02-26T04:31:45;9.43;;;4.78;;
20729;SDS011;10526;50.850;12.928;2023-02-26T04:36:07;9.57;;;4.72;;
20729;SDS011;10526;50.850;12.928;2023-02-26T04:40:30;11.38;;;4.90;;
20729;SDS011;10526;50.850;12.928;2023-02-26T04:44:52;9.75;;;4.82;;
20729;SDS011;10526;50.850;12.928;2023-02-26T04:49:17;8.75;;;4.05;;
20729;SDS011;10526;50.850;12.928;2023-02-26T04:53:40;8.00;;;3.83;;
20729;SDS011;10526;50.850;12.928;2023-02-26T04:58:03;9.13;;;4.63;;
20729;SDS011;10526;50.850;12.928;2023-02-26T05:02:25;8.13;;;4.07;;
20729;SDS011;10526;50.850;12.928;2023-02-26T05:06:47;8.13;;;3.95;;
20729;SDS011;10526;50.850;12.928;2023-02-26T05:11:10;11.07;;;4.30;;
20729;SDS011;10526;50.850;12.928;2023-02-26T05:15:32;9.60;;;4.68;;
20729;SDS011;10526;50.850;12.928;2023-02-26T05:19:54;9.40;;;4.53;;
20729;SDS011;10526;50.850;12.928;2023-02-26T05:24:17;10.55;;;3.78;;
20729;SDS011;10526;50.850;12.928;2023-02-26T05:28:39;12.35;;;4.53;;
20729;SDS011;10526;50.850;12.928;2023-02-26T05:33:01;11.90;;;4.95;;
20729;SDS011;10526;50.850;12.928;2023-02-26T05:37:23;8.82;;;4.22;;
20729;SDS011;10526;50.850;12.928;2023-02-26T05:41:45;8.68;;;4.35;;
20729;SDS011;10526;50.850;12.928;2023-02-26T05:46:08;8.18;;;4.22;;
20729;SDS011;10526;50.850;12.928;2023-02-26T05:50:30;10.10;;;4.47;;
20729;SDS011;10526;50.850;12.928;2023-02-26T05:54:52;13.32;;;5.22;;
20729;SDS011;10526;50.850;12.928;2023-02-26T05:59:16;16.27;;;7.28;;
20729;SDS011;10526;50.850;12.928;2023-02-26T06:03:38;10.02;;;4.97;;
20729;SDS011;10526;50.850;12.928;2023-02-26T06:08:04;10.85;;;5.05;;
20729;SDS011;10526;50.850;12.928;2023-02-26T06:12:27;12.43;;;5.40;;
20729;SDS011;10526;50.850;12.928;2023-02-26T06:16:49;9.60;;;4.93;;
20729;SDS011;10526;50.850;12.928;2023-02-26T06:21:11;13.60;;;6.15;;
20729;SDS011;10526;50.850;12.928;2023-02-26T06:25:34;13.45;;;5.47;;
20729;SDS011;10526;50.850;12.928;2023-02-26T06:29:57;15.55;;;5.18;;
20729;SDS011;10526;50.850;12.928;2023-02-26T06:34:19;15.05;;;5.00;;
20729;SDS011;10526;50.850;12.928;2023-02-26T06:38:42;13.23;;;5.20;;
20729;SDS011;10526;50.850;12.928;2023-02-26T06:43:05;13.07;;;4.95;;
20729;SDS011;10526;50.850;12.928;2023-02-26T06:47:27;16.13;;;6.65;;
20729;SDS011;10526;50.850;12.928;2023-02-26T06:51:49;11.90;;;4.82;;
20729;SDS011;10526;50.850;12.928;2023-02-26T06:56:11;10.27;;;4.55;;
20729;SDS011;10526;50.850;12.928;2023-02-26T07:00:33;10.90;;;4.15;;
20729;SDS011;10526;50.850;12.928;2023-02-26T07:04:56;14.70;;;4.57;;
20729;SDS011;10526;50.850;12.928;2023-02-26T07:09:18;10.15;;;4.22;;
20729;SDS011;10526;50.850;12.928;2023-02-26T07:13:40;8.45;;;3.65;;
20729;SDS011;10526;50.850;12.928;2023-02-26T07:18:02;11.23;;;3.95;;
20729;SDS011;10526;50.850;12.928;2023-02-26T07:22:25;10.48;;;3.90;;
20729;SDS011;10526;50.850;12.928;2023-02-26T07:26:47;9.45;;;3.80;;
20729;SDS011;10526;50.850;12.928;2023-02-26T07:31:09;9.98;;;3.40;;
20729;SDS011;10526;50.850;12.928;2023-02-26T07:35:31;8.15;;;3.10;;
20729;SDS011;10526;50.850;12.928;2023-02-26T07:39:53;10.38;;;3.53;;
20729;SDS011;10526;50.850;12.928;2023-02-26T07:44:16;9.20;;;4.18;;
20729;SDS011;10526;50.850;12.928;2023-02-26T07:48:38;10.23;;;4.13;;
20729;SDS011;10526;50.850;12.928;2023-02-26T07:53:01;13.93;;;3.67;;
20729;SDS011;10526;50.850;12.928;2023-02-26T07:57:23;11.77;;;3.95;;
20729;SDS011;10526;50.850;12.928;2023-02-26T08:01:45;10.48;;;4.18;;
20729;SDS011;10526;50.850;12.928;2023-02-26T08:06:08;8.40;;;3.78;;
20729;SDS011;10526;50.850;12.928;2023-02-26T08:10:30;7.80;;;3.72;;
20729;SDS011;10526;50.850;12.928;2023-02-26T08:14:52;10.48;;;3.38;;
20729;SDS011;10526;50.850;12.928;2023-02-26T08:19:14;10.05;;;3.22;;
20729;SDS011;10526;50.850;12.928;2023-02-26T08:23:36;10.73;;;3.03;;
20729;SDS011;10526;50.850;12.928;2023-02-26T08:27:59;10.18;;;2.80;;
20729;SDS011;10526;50.850;12.928;2023-02-26T08:32:23;7.55;;;2.80;;
20729;SDS011;10526;50.850;12.928;2023-02-26T08:36:47;9.30;;;2.88;;
20729;SDS011;10526;50.850;12.928;2023-02-26T08:41:10;8.00;;;2.80;;
20729;SDS011;10526;50.850;12.928;2023-02-26T08:45:32;6.13;;;2.33;;
20729;SDS011;10526;50.850;12.928;2023-02-26T08:49:54;5.95;;;2.67;;
20729;SDS011;10526;50.850;12.928;2023-02-26T08:54:17;9.00;;;2.55;;
20729;SDS011;10526;50.850;12.928;2023-02-26T08:58:39;7.97;;;3.03;;
20729;SDS011;10526;50.850;12.928;2023-02-26T09:03:01;9.20;;;2.72;;
20729;SDS011;10526;50.850;12.928;2023-02-26T09:07:23;14.02;;;3.92;;
20729;SDS011;10526;50.850;12.928;2023-02-26T09:11:45;10.88;;;3.40;;
20729;SDS011;10526;50.850;12.928;2023-02-26T09:16:07;8.48;;;2.80;;
20729;SDS011;10526;50.850;12.928;2023-02-26T09:20:29;5.75;;;2.20;;
20729;SDS011;10526;50.850;12.928;2023-02-26T09:24:51;9.73;;;2.47;;
20729;SDS011;10526;50.850;12.928;2023-02-26T09:29:14;5.95;;;2.13;;
20729;SDS011;10526;50.850;12.928;2023-02-26T09:33:36;6.63;;;2.28;;
20729;SDS011;10526;50.850;12.928;2023-02-26T09:37:58;9.98;;;2.40;;
20729;SDS011;10526;50.850;12.928;2023-02-26T09:51:44;6.03;;;1.95;;
20729;SDS011;10526;50.850;12.928;2023-02-26T09:56:14;6.65;;;2.30;;
20729;SDS011;10526;50.850;12.928;2023-02-26T10:00:42;9.93;;;2.80;;
20729;SDS011;10526;50.850;12.928;2023-02-26T10:10:19;7.30;;;1.80;;
20729;SDS011;10526;50.850;12.928;2023-02-26T10:14:56;4.88;;;1.75;;
20729;SDS011;10526;50.850;12.928;2023-02-26T10:19:39;7.93;;;1.90;;
20729;SDS011;10526;50.850;12.928;2023-02-26T10:24:18;5.05;;;1.95;;
20729;SDS011;10526;50.850;12.928;2023-02-26T10:28:53;5.93;;;2.25;;
20729;SDS011;10526;50.850;12.928;2023-02-26T10:37:57;6.50;;;2.00;;
20729;SDS011;10526;50.850;12.928;2023-02-26T10:42:33;9.75;;;2.13;;
20729;SDS011;10526;50.850;12.928;2023-02-26T10:52:14;5.32;;;2.33;;
20729;SDS011;10526;50.850;12.928;2023-02-26T10:56:39;8.38;;;2.08;;
20729;SDS011;10526;50.850;12.928;2023-02-26T11:01:01;5.82;;;1.85;;
20729;SDS011;10526;50.850;12.928;2023-02-26T11:05:28;8.95;;;2.40;;
20729;SDS011;10526;50.850;12.928;2023-02-26T11:09:53;5.43;;;1.77;;
20729;SDS011;10526;50.850;12.928;2023-02-26T11:14:15;8.60;;;2.13;;
20729;SDS011;10526;50.850;12.928;2023-02-26T11:18:43;3.55;;;1.50;;
20729;SDS011;10526;50.850;12.928;2023-02-26T11:23:11;9.57;;;2.17;;
20729;SDS011;10526;50.850;12.928;2023-02-26T11:27:44;10.18;;;2.10;;
20729;SDS011;10526;50.850;12.928;2023-02-26T11:32:18;6.75;;;1.80;;
20729;SDS011;10526;50.850;12.928;2023-02-26T11:36:43;4.82;;;1.95;;
20729;SDS011;10526;50.850;12.928;2023-02-26T11:41:05;6.88;;;1.73;;
20729;SDS011;10526;50.850;12.928;2023-02-26T11:45:27;6.88;;;1.98;;
20729;SDS011;10526;50.850;12.928;2023-02-26T11:49:50;8.90;;;2.63;;
20729;SDS011;10526;50.850;12.928;2023-02-26T11:54:20;9.77;;;2.80;;
20729;SDS011;10526;50.850;12.928;2023-02-26T11:58:45;10.95;;;2.08;;
20729;SDS011;10526;50.850;12.928;2023-02-26T12:03:21;9.63;;;2.47;;
20729;SDS011;10526;50.850;12.928;2023-02-26T12:07:49;6.63;;;1.55;;
20729;SDS011;10526;50.850;12.928;2023-02-26T12:21:44;3.83;;;1.67;;
20729;SDS011;10526;50.850;12.928;2023-02-26T12:26:45;6.07;;;1.50;;
20729;SDS011;10526;50.850;12.928;2023-02-26T13:06:30;5.22;;;1.63;;
20729;SDS011;10526;50.850;12.928;2023-02-26T13:16:49;4.85;;;1.45;;
20729;SDS011;10526;50.850;12.928;2023-02-26T13:21:44;4.07;;;1.60;;
20729;SDS011;10526;50.850;12.928;2023-02-26T13:26:11;3.00;;;1.75;;
20729;SDS011;10526;50.850;12.928;2023-02-26T13:30:44;5.70;;;1.80;;
20729;SDS011;10526;50.850;12.928;2023-02-26T13:35:18;3.88;;;1.27;;
20729;SDS011;10526;50.850;12.928;2023-02-26T13:45:50;3.20;;;1.42;;
20729;SDS011;10526;50.850;12.928;2023-02-26T13:55:03;5.28;;;1.90;;
20729;SDS011;10526;50.850;12.928;2023-02-26T13:59:31;5.22;;;1.73;;
20729;SDS011;10526;50.850;12.928;2023-02-26T14:08:44;4.18;;;1.60;;
20729;SDS011;10526;50.850;12.928;2023-02-26T14:13:10;4.68;;;2.00;;
20729;SDS011;10526;50.850;12.928;2023-02-26T14:17:49;4.75;;;1.52;;
20729;SDS011;10526;50.850;12.928;2023-02-26T14:27:03;4.20;;;1.63;;
20729;SDS011;10526;50.850;12.928;2023-02-26T14:31:51;5.32;;;1.40;;
20729;SDS011;10526;50.850;12.928;2023-02-26T14:36:18;4.30;;;2.20;;
20729;SDS011;10526;50.850;12.928;2023-02-26T14:40:50;5.85;;;2.15;;
20729;SDS011;10526;50.850;12.928;2023-02-26T14:45:40;3.22;;;1.40;;
20729;SDS011;10526;50.850;12.928;2023-02-26T14:50:05;2.20;;;1.27;;
20729;SDS011;10526;50.850;12.928;2023-02-26T14:54:52;7.70;;;1.70;;
20729;SDS011;10526;50.850;12.928;2023-02-26T15:04:44;5.78;;;2.08;;
20729;SDS011;10526;50.850;12.928;2023-02-26T15:20:00;14.27;;;2.38;;
20729;SDS011;10526;50.850;12.928;2023-02-26T15:24:43;3.05;;;1.27;;
20729;SDS011;10526;50.850;12.928;2023-02-26T15:29:07;5.03;;;1.40;;
20729;SDS011;10526;50.850;12.928;2023-02-26T15:33:33;5.50;;;1.52;;
20729;SDS011;10526;50.850;12.928;2023-02-26T15:37:57;2.78;;;1.33;;
20729;SDS011;10526;50.850;12.928;2023-02-26T15:42:25;6.15;;;1.88;;
20729;SDS011;10526;50.850;12.928;2023-02-26T15:46:55;3.30;;;1.40;;
20729;SDS011;10526;50.850;12.928;2023-02-26T15:51:21;4.97;;;1.70;;
20729;SDS011;10526;50.850;12.928;2023-02-26T15:55:47;6.45;;;1.80;;
20729;SDS011;10526;50.850;12.928;2023-02-26T16:00:17;6.53;;;2.08;;
20729;SDS011;10526;50.850;12.928;2023-02-26T16:04:46;5.55;;;1.90;;
20729;SDS011;10526;50.850;12.928;2023-02-26T16:09:15;11.10;;;2.10;;
20729;SDS011;10526;50.850;12.928;2023-02-26T16:13:55;5.75;;;1.75;;
20729;SDS011;10526;50.850;12.928;2023-02-26T16:18:21;9.70;;;2.70;;
20729;SDS011;10526;50.850;12.928;2023-02-26T16:22:49;8.48;;;2.65;;
20729;SDS011;10526;50.850;12.928;2023-02-26T16:27:18;7.32;;;2.20;;
20729;SDS011;10526;50.850;12.928;2023-02-26T16:31:41;3.83;;;1.70;;
20729;SDS011;10526;50.850;12.928;2023-02-26T16:36:14;6.38;;;2.22;;
20729;SDS011;10526;50.850;12.928;2023-02-26T16:40:39;4.38;;;2.10;;
20729;SDS011;10526;50.850;12.928;2023-02-26T16:49:57;6.50;;;2.20;;
20729;SDS011;10526;50.850;12.928;2023-02-26T16:54:32;5.55;;;1.95;;
20729;SDS011;10526;50.850;12.928;2023-02-26T16:59:03;5.30;;;1.70;;
20729;SDS011;10526;50.850;12.928;2023-02-26T17:03:32;5.72;;;2.30;;
20729;SDS011;10526;50.850;12.928;2023-02-26T17:08:00;7.72;;;2.55;;
20729;SDS011;10526;50.850;12.928;2023-02-26T17:12:45;6.70;;;2.15;;
20729;SDS011;10526;50.850;12.928;2023-02-26T17:17:10;7.90;;;2.28;;
20729;SDS011;10526;50.850;12.928;2023-02-26T17:21:33;6.22;;;2.17;;
20729;SDS011;10526;50.850;12.928;2023-02-26T17:25:58;11.23;;;2.53;;
20729;SDS011;10526;50.850;12.928;2023-02-26T17:30:22;7.30;;;2.40;;
20729;SDS011;10526;50.850;12.928;2023-02-26T17:34:45;6.85;;;2.63;;
20729;SDS011;10526;50.850;12.928;2023-02-26T17:39:09;10.02;;;2.90;;
20729;SDS011;10526;50.850;12.928;2023-02-26T17:43:33;9.90;;;3.15;;
20729;SDS011;10526;50.850;12.928;2023-02-26T17:47:56;10.20;;;3.08;;
20729;SDS011;10526;50.850;12.928;2023-02-26T17:52:19;7.35;;;3.67;;
20729;SDS011;10526;50.850;12.928;2023-02-26T17:56:41;10.70;;;4.15;;
20729;SDS011;10526;50.850;12.928;2023-02-26T18:01:05;11.52;;;3.63;;
20729;SDS011;10526;50.850;12.928;2023-02-26T18:05:28;13.25;;;4.95;;
20729;SDS011;10526;50.850;12.928;2023-02-26T18:09:53;19.92;;;5.30;;
20729;SDS011;10526;50.850;12.928;2023-02-26T18:14:14;12.10;;;4.60;;
20729;SDS011;10526;50.850;12.928;2023-02-26T18:18:37;10.77;;;3.80;;
20729;SDS011;10526;50.850;12.928;2023-02-26T18:22:59;15.60;;;3.90;;
20729;SDS011;10526;50.850;12.928;2023-02-26T18:27:21;12.00;;;3.38;;
20729;SDS011;10526;50.850;12.928;2023-02-26T18:31:45;10.88;;;3.72;;
20729;SDS011;10526;50.850;12.928;2023-02-26T18:36:08;11.18;;;3.90;;
20729;SDS011;10526;50.850;12.928;2023-02-26T18:41:00;18.55;;;6.07;;
20729;SDS011;10526;50.850;12.928;2023-02-26T18:45:22;16.75;;;6.60;;
20729;SDS011;10526;50.850;12.928;2023-02-26T18:49:45;15.15;;;5.78;;
20729;SDS011;10526;50.850;12.928;2023-02-26T18:54:08;15.48;;;5.68;;
20729;SDS011;10526;50.850;12.928;2023-02-26T18:58:35;11.60;;;3.92;;
20729;SDS011;10526;50.850;12.928;2023-02-26T19:03:00;11.93;;;4.47;;
20729;SDS011;10526;50.850;12.928;2023-02-26T19:07:22;11.55;;;4.18;;
20729;SDS011;10526;50.850;12.928;2023-02-26T19:11:44;8.60;;;3.80;;
20729;SDS011;10526;50.850;12.928;2023-02-26T19:16:06;12.20;;;4.55;;
20729;SDS011;10526;50.850;12.928;2023-02-26T19:20:28;15.95;;;4.63;;
20729;SDS011;10526;50.850;12.928;2023-02-26T19:24:50;11.27;;;4.30;;
20729;SDS011;10526;50.850;12.928;2023-02-26T19:29:16;12.73;;;4.28;;
20729;SDS011;10526;50.850;12.928;2023-02-26T19:33:40;10.63;;;4.13;;
20729;SDS011;10526;50.850;12.928;2023-02-26T19:38:02;10.02;;;3.60;;
20729;SDS011;10526;50.850;12.928;2023-02-26T19:42:24;10.73;;;3.40;;
20729;SDS011;10526;50.850;12.928;2023-02-26T19:46:48;10.38;;;3.03;;
20729;SDS011;10526;50.850;12.928;2023-02-26T19:51:11;10.38;;;3.00;;
20729;SDS011;10526;50.850;12.928;2023-02-26T19:55:33;10.23;;;2.70;;
20729;SDS011;10526;50.850;12.928;2023-02-26T19:59:55;9.13;;;2.50;;
20729;SDS011;10526;50.850;12.928;2023-02-26T20:04:19;7.25;;;2.45;;
20729;SDS011;10526;50.850;12.928;2023-02-26T20:08:42;8.63;;;2.60;;
20729;SDS011;10526;50.850;12.928;2023-02-26T20:13:04;7.93;;;3.53;;
20729;SDS011;10526;50.850;12.928;2023-02-26T20:17:26;11.73;;;2.80;;
20729;SDS011;10526;50.850;12.928;2023-02-26T20:21:48;6.38;;;2.33;;
20729;SDS011;10526;50.850;12.928;2023-02-26T20:26:11;8.23;;;2.65;;
20729;SDS011;10526;50.850;12.928;2023-02-26T20:30:38;10.00;;;2.55;;
20729;SDS011;10526;50.850;12.928;2023-02-26T20:35:00;9.00;;;2.15;;
20729;SDS011;10526;50.850;12.928;2023-02-26T20:39:23;9.25;;;2.60;;
20729;SDS011;10526;50.850;12.928;2023-02-26T20:43:45;5.93;;;2.50;;
20729;SDS011;10526;50.850;12.928;2023-02-26T20:48:07;8.45;;;2.22;;
20729;SDS011;10526;50.850;12.928;2023-02-26T20:52:30;5.72;;;2.40;;
20729;SDS011;10526;50.850;12.928;2023-02-26T20:56:52;11.95;;;3.08;;
20729;SDS011;10526;50.850;12.928;2023-02-26T21:01:14;6.65;;;2.53;;
20729;SDS011;10526;50.850;12.928;2023-02-26T21:05:36;8.18;;;2.97;;
20729;SDS011;10526;50.850;12.928;2023-02-26T21:09:58;10.95;;;3.83;;
20729;SDS011;10526;50.850;12.928;2023-02-26T21:14:21;8.88;;;3.28;;
20729;SDS011;10526;50.850;12.928;2023-02-26T21:18:44;11.27;;;3.20;;
20729;SDS011;10526;50.850;12.928;2023-02-26T21:23:06;9.10;;;2.95;;
20729;SDS011;10526;50.850;12.928;2023-02-26T21:27:29;10.15;;;3.47;;
20729;SDS011;10526;50.850;12.928;2023-02-26T21:31:51;9.25;;;3.25;;
20729;SDS011;10526;50.850;12.928;2023-02-26T21:36:13;6.28;;;3.05;;
20729;SDS011;10526;50.850;12.928;2023-02-26T21:40:35;8.63;;;3.45;;
20729;SDS011;10526;50.850;12.928;2023-02-26T21:44:57;14.68;;;3.40;;
20729;SDS011;10526;50.850;12.928;2023-02-26T21:49:20;13.05;;;4.25;;
20729;SDS011;10526;50.850;12.928;2023-02-26T21:53:42;12.82;;;4.13;;
20729;SDS011;10526;50.850;12.928;2023-02-26T21:58:05;15.48;;;5.60;;
20729;SDS011;10526;50.850;12.928;2023-02-26T22:02:28;11.30;;;4.20;;
20729;SDS011;10526;50.850;12.928;2023-02-26T22:06:51;16.03;;;5.27;;
20729;SDS011;10526;50.850;12.928;2023-02-26T22:11:13;13.82;;;5.03;;
20729;SDS011;10526;50.850;12.928;2023-02-26T22:15:35;11.65;;;3.85;;
20729;SDS011;10526;50.850;12.928;2023-02-26T22:19:57;9.02;;;3.78;;
20729;SDS011;10526;50.850;12.928;2023-02-26T22:24:19;12.80;;;4.25;;
20729;SDS011;10526;50.850;12.928;2023-02-26T22:28:42;15.05;;;5.45;;
20729;SDS011;10526;50.850;12.928;2023-02-26T22:33:04;16.35;;;5.45;;
20729;SDS011;10526;50.850;12.928;2023-02-26T22:37:26;14.63;;;5.38;;
20729;SDS011;10526;50.850;12.928;2023-02-26T22:41:48;13.95;;;4.85;;
20729;SDS011;10526;50.850;12.928;2023-02-26T22:46:10;14.82;;;4.85;;
20729;SDS011;10526;50.850;12.928;2023-02-26T22:50:33;13.52;;;5.15;;
20729;SDS011;10526;50.850;12.928;2023-02-26T22:54:55;14.18;;;5.13;;
20729;SDS011;10526;50.850;12.928;2023-02-26T22:59:17;18.27;;;5.72;;
20729;SDS011;10526;50.850;12.928;2023-02-26T23:03:39;17.48;;;5.47;;
20729;SDS011;10526;50.850;12.928;2023-02-26T23:08:01;13.82;;;5.57;;
20729;SDS011;10526;50.850;12.928;2023-02-26T23:12:24;13.82;;;5.70;;
20729;SDS011;10526;50.850;12.928;2023-02-26T23:16:46;18.23;;;5.72;;
20729;SDS011;10526;50.850;12.928;2023-02-26T23:21:08;18.00;;;6.53;;
20729;SDS011;10526;50.850;12.928;2023-02-26T23:25:30;15.30;;;6.00;;
20729;SDS011;10526;50.850;12.928;2023-02-26T23:29:52;14.88;;;6.38;;
20729;SDS011;10526;50.850;12.928;2023-02-26T23:34:14;15.05;;;5.90;;
20729;SDS011;10526;50.850;12.928;2023-02-26T23:38:36;15.73;;;6.38;;
20729;SDS011;10526;50.850;12.928;2023-02-26T23:42:58;23.90;;;7.35;;
20729;SDS011;10526;50.850;12.928;2023-02-26T23:47:20;16.83;;;6.68;;
20729;SDS011;10526;50.850;12.928;2023-02-26T23:51:43;18.50;;;6.45;;
20729;SDS011;10526;50.850;12.928;2023-02-26T23:56:06;19.75;;;7.20;;
